createdAt,value
2023-02-28T00:01:33.338Z,14.07
2023-02-28T00:04:01.849Z,14.67
2023-02-28T00:06:31.438Z,14.03
2023-02-28T00:08:59.509Z,14.00
2023-02-28T00:11:27.915Z,13.90
2023-02-28T00:13:56.361Z,14.27
2023-02-28T00:16:25.035Z,13.90
2023-02-28T00:18:53.282Z,14.83
2023-02-28T00:21:22.154Z,14.70
2023-02-28T00:23:51.563Z,14.70
2023-02-28T00:26:21.796Z,15.97
2023-02-28T00:28:51.256Z,14.80
2023-02-28T00:31:19.468Z,13.97
2023-02-28T00:33:50.012Z,14.13
2023-02-28T00:36:18.226Z,15.63
2023-02-28T00:38:46.319Z,15.37
2023-02-28T00:41:15.847Z,17.67
2023-02-28T00:43:43.986Z,16.63
2023-02-28T00:46:12.840Z,17.03
2023-02-28T00:48:40.917Z,17.00
2023-02-28T00:51:08.952Z,17.07
2023-02-28T00:53:37.119Z,15.73
2023-02-28T00:56:05.709Z,15.37
2023-02-28T00:58:35.168Z,16.43
2023-02-28T01:01:03.256Z,16.00
2023-02-28T01:03:31.526Z,14.70
2023-02-28T01:06:00.323Z,15.43
2023-02-28T01:08:28.906Z,15.23
2023-02-28T01:10:57.493Z,15.67
2023-02-28T01:13:26.446Z,14.90
2023-02-28T01:15:58.142Z,16.13
2023-02-28T01:18:26.759Z,15.93
2023-02-28T01:20:55.170Z,15.70
2023-02-28T01:23:25.206Z,15.93
2023-02-28T01:25:53.877Z,16.03
2023-02-28T01:28:22.149Z,16.43
2023-02-28T01:30:52.337Z,16.33
2023-02-28T01:33:22.049Z,15.80
2023-02-28T01:35:50.222Z,15.60
2023-02-28T01:38:23.096Z,15.63
2023-02-28T01:40:51.998Z,16.13
2023-02-28T01:43:24.769Z,16.13
2023-02-28T01:45:54.824Z,16.80
2023-02-28T01:48:28.969Z,18.10
2023-02-28T01:51:01.326Z,18.73
2023-02-28T01:53:34.574Z,17.87
2023-02-28T01:56:06.037Z,19.63
2023-02-28T01:58:34.454Z,19.53
2023-02-28T02:01:04.037Z,19.27
2023-02-28T02:03:33.559Z,19.70
2023-02-28T02:06:01.614Z,21.70
2023-02-28T02:08:31.674Z,21.23
2023-02-28T02:11:02.098Z,21.77
2023-02-28T02:13:47.736Z,20.27
2023-02-28T02:16:33.310Z,22.93
2023-02-28T02:19:17.293Z,23.03
2023-02-28T02:22:13.489Z,23.43
2023-02-28T02:25:16.239Z,23.67
2023-02-28T02:28:13.835Z,22.30
2023-02-28T02:31:07.493Z,22.33
2023-02-28T02:34:26.051Z,22.50
2023-02-28T02:37:04.874Z,22.90
2023-02-28T02:39:43.018Z,22.33
2023-02-28T02:42:17.885Z,22.20
2023-02-28T02:44:50.735Z,20.27
2023-02-28T02:47:23.026Z,19.73
2023-02-28T02:49:54.789Z,20.67
2023-02-28T02:52:29.908Z,19.53
2023-02-28T02:55:00.334Z,20.20
2023-02-28T02:57:35.154Z,19.60
2023-02-28T03:00:06.223Z,20.07
2023-02-28T03:02:35.457Z,19.10
2023-02-28T03:05:07.776Z,19.43
2023-02-28T03:07:37.425Z,19.47
2023-02-28T03:10:20.858Z,19.60
2023-02-28T03:13:06.213Z,19.23
2023-02-28T03:15:47.661Z,20.97
2023-02-28T03:18:25.592Z,21.10
2023-02-28T03:21:02.501Z,20.90
2023-02-28T03:23:40.576Z,21.37
2023-02-28T03:26:18.529Z,21.43
2023-02-28T03:28:55.755Z,22.20
2023-02-28T03:31:29.778Z,22.03
2023-02-28T03:34:03.913Z,22.00
2023-02-28T03:36:42.837Z,22.13
2023-02-28T03:39:16.367Z,22.20
2023-02-28T03:41:50.683Z,22.63
2023-02-28T03:44:24.056Z,21.83
2023-02-28T03:47:02.809Z,23.97
2023-02-28T03:49:35.376Z,22.83
2023-02-28T03:52:06.119Z,22.27
2023-02-28T03:54:39.826Z,22.67
2023-02-28T03:57:18.209Z,23.37
2023-02-28T03:59:50.822Z,23.83
2023-02-28T04:02:19.611Z,22.97
2023-02-28T04:04:49.418Z,22.37
2023-02-28T04:07:18.176Z,24.07
2023-02-28T04:09:47.708Z,23.70
2023-02-28T04:12:15.788Z,23.83
2023-02-28T04:14:43.925Z,23.63
2023-02-28T04:17:12.070Z,23.77
2023-02-28T04:19:40.197Z,24.23
2023-02-28T04:22:08.347Z,23.73
2023-02-28T04:24:36.572Z,23.67
2023-02-28T04:27:06.022Z,24.13
2023-02-28T04:29:34.502Z,23.77
2023-02-28T04:32:04.027Z,24.27
2023-02-28T04:34:34.061Z,24.63
2023-02-28T04:37:12.939Z,25.27
2023-02-28T04:39:42.307Z,24.03
2023-02-28T04:42:12.622Z,23.07
2023-02-28T04:44:40.660Z,23.43
2023-02-28T04:47:08.822Z,23.70
2023-02-28T04:49:36.876Z,23.33
2023-02-28T04:52:04.920Z,24.07
2023-02-28T04:54:32.973Z,24.80
2023-02-28T04:57:02.574Z,24.50
2023-02-28T04:59:31.997Z,25.60
2023-02-28T05:02:00.049Z,24.93
2023-02-28T05:04:28.313Z,25.07
2023-02-28T05:06:56.422Z,25.47
2023-02-28T05:09:24.546Z,25.63
2023-02-28T05:11:52.612Z,25.40
2023-02-28T05:14:20.698Z,25.87
2023-02-28T05:16:50.104Z,25.67
2023-02-28T05:19:18.283Z,25.70
2023-02-28T05:21:53.234Z,25.70
2023-02-28T05:24:23.825Z,25.67
2023-02-28T05:26:53.881Z,25.10
2023-02-28T05:29:22.024Z,24.77
2023-02-28T05:31:51.835Z,25.30
2023-02-28T05:34:20.332Z,24.93
2023-02-28T05:36:48.421Z,25.40
2023-02-28T05:39:16.510Z,25.30
2023-02-28T05:41:45.702Z,24.57
2023-02-28T05:44:13.808Z,24.93
2023-02-28T05:46:41.911Z,24.77
2023-02-28T05:49:11.371Z,24.20
2023-02-28T05:51:41.018Z,25.47
2023-02-28T05:54:09.763Z,24.57
2023-02-28T05:56:40.132Z,23.83
2023-02-28T05:59:08.533Z,24.57
2023-02-28T06:01:38.645Z,24.87
2023-02-28T06:04:14.315Z,23.93
2023-02-28T06:06:49.713Z,24.37
2023-02-28T06:09:17.865Z,24.97
2023-02-28T06:11:46.168Z,25.70
2023-02-28T06:14:17.882Z,24.43
2023-02-28T06:16:46.482Z,26.87
2023-02-28T06:19:16.110Z,25.87
2023-02-28T06:21:44.833Z,26.40
2023-02-28T06:24:14.255Z,27.37
2023-02-28T06:26:42.392Z,27.30
2023-02-28T06:29:10.455Z,27.20
2023-02-28T06:31:39.463Z,27.07
2023-02-28T06:34:07.572Z,28.00
2023-02-28T06:36:35.759Z,28.37
2023-02-28T06:39:03.873Z,28.90
2023-02-28T06:41:53.550Z,30.37
2023-02-28T06:44:24.212Z,29.63
2023-02-28T06:46:52.329Z,29.37
2023-02-28T06:49:20.480Z,30.17
2023-02-28T06:51:48.502Z,29.40
2023-02-28T06:54:16.598Z,28.97
2023-02-28T06:56:46.063Z,28.60
2023-02-28T06:59:14.176Z,28.23
2023-02-28T07:01:42.733Z,28.57
2023-02-28T07:04:11.179Z,28.73
2023-02-28T07:06:39.233Z,27.67
2023-02-28T07:09:10.406Z,28.97
2023-02-28T07:11:38.530Z,27.40
2023-02-28T07:14:08.017Z,26.53
2023-02-28T07:16:36.167Z,26.40
2023-02-28T07:19:04.294Z,26.37
2023-02-28T07:21:32.585Z,26.70
2023-02-28T07:24:00.692Z,26.70
2023-02-28T07:26:28.956Z,25.43
2023-02-28T07:28:56.977Z,24.37
2023-02-28T07:31:26.494Z,23.20
2023-02-28T07:33:55.014Z,22.00
2023-02-28T07:36:23.217Z,22.30
2023-02-28T07:38:51.929Z,21.57
2023-02-28T07:41:21.573Z,21.03
2023-02-28T07:43:49.972Z,20.90
2023-02-28T07:46:21.362Z,19.57
2023-02-28T07:48:50.909Z,19.33
2023-02-28T07:51:19.286Z,19.67
2023-02-28T07:53:47.474Z,18.83
2023-02-28T07:56:15.483Z,19.60
2023-02-28T07:58:43.664Z,16.17
2023-02-28T08:01:12.898Z,15.50
2023-02-28T08:03:42.067Z,15.20
2023-02-28T08:06:18.701Z,14.60
2023-02-28T08:08:46.901Z,13.60
2023-02-28T08:11:14.942Z,13.43
2023-02-28T08:13:45.014Z,14.03
2023-02-28T08:16:16.518Z,12.20
2023-02-28T08:18:44.703Z,12.20
2023-02-28T08:21:14.175Z,11.87
2023-02-28T08:23:42.360Z,10.87
2023-02-28T08:26:10.454Z,10.83
2023-02-28T08:28:38.515Z,9.33
2023-02-28T08:31:10.320Z,9.13
2023-02-28T08:33:40.076Z,8.50
2023-02-28T08:36:09.762Z,8.30
2023-02-28T08:38:39.676Z,7.93
2023-02-28T08:41:10.133Z,8.00
2023-02-28T08:43:38.610Z,7.83
2023-02-28T08:46:07.805Z,7.80
2023-02-28T08:48:38.965Z,8.57
2023-02-28T08:51:12.282Z,7.73
2023-02-28T08:53:42.535Z,7.10
2023-02-28T08:56:13.258Z,7.67
2023-02-28T08:58:42.026Z,6.63
2023-02-28T09:01:13.088Z,7.00
2023-02-28T09:03:42.557Z,7.07
2023-02-28T09:06:12.436Z,8.20
2023-02-28T09:08:42.469Z,7.67
2023-02-28T09:11:10.945Z,6.97
2023-02-28T09:13:41.974Z,7.10
2023-02-28T09:16:13.322Z,7.67
2023-02-28T09:18:42.551Z,7.63
2023-02-28T09:21:14.590Z,7.70
2023-02-28T09:23:45.057Z,6.87
2023-02-28T09:26:16.497Z,7.30
2023-02-28T09:28:44.648Z,7.30
2023-02-28T09:31:15.808Z,7.00
2023-02-28T09:33:44.015Z,6.80
2023-02-28T09:36:12.119Z,7.57
2023-02-28T09:38:40.771Z,7.67
2023-02-28T09:41:16.769Z,8.30
2023-02-28T09:43:48.008Z,9.03
2023-02-28T09:46:33.676Z,8.20
2023-02-28T09:49:04.678Z,8.40
2023-02-28T09:51:42.417Z,8.57
2023-02-28T09:54:19.809Z,8.63
2023-02-28T09:56:54.345Z,9.20
2023-02-28T09:59:38.249Z,9.50
2023-02-28T10:02:15.820Z,8.80
2023-02-28T10:04:52.646Z,8.53
2023-02-28T10:07:39.947Z,8.63
2023-02-28T10:10:22.510Z,9.17
2023-02-28T10:12:54.872Z,9.10
2023-02-28T10:15:27.386Z,9.83
2023-02-28T10:18:08.452Z,9.30
2023-02-28T10:20:39.656Z,9.43
2023-02-28T10:23:15.300Z,9.10
2023-02-28T10:25:49.110Z,7.77
2023-02-28T10:28:20.084Z,7.93
2023-02-28T10:30:50.254Z,7.90
2023-02-28T10:33:23.706Z,8.47
2023-02-28T10:35:51.945Z,8.43
2023-02-28T10:38:22.360Z,8.30
2023-02-28T10:40:50.534Z,7.37
2023-02-28T10:43:25.721Z,7.20
2023-02-28T10:46:04.546Z,6.93
2023-02-28T10:48:36.401Z,7.07
2023-02-28T10:51:05.974Z,7.57
2023-02-28T10:53:57.578Z,7.43
2023-02-28T10:56:28.407Z,8.03
2023-02-28T10:58:59.731Z,7.80
2023-02-28T11:01:39.157Z,7.67
2023-02-28T11:04:22.600Z,7.10
2023-02-28T11:06:59.973Z,8.60
2023-02-28T11:09:32.810Z,8.30
2023-02-28T11:12:01.512Z,8.57
2023-02-28T11:14:33.482Z,8.40
2023-02-28T11:17:17.389Z,8.10
2023-02-28T11:19:49.863Z,8.80
2023-02-28T11:22:22.256Z,8.33
2023-02-28T11:24:55.026Z,8.93
2023-02-28T11:27:48.033Z,7.93
2023-02-28T11:30:36.242Z,8.30
2023-02-28T11:33:23.642Z,8.10
2023-02-28T11:35:53.449Z,7.80
2023-02-28T11:38:21.707Z,8.50
2023-02-28T11:41:01.854Z,8.10
2023-02-28T11:43:43.185Z,8.10
2023-02-28T11:46:23.435Z,8.13
2023-02-28T11:49:00.743Z,8.37
2023-02-28T11:51:34.743Z,7.87
2023-02-28T11:54:26.788Z,7.80
2023-02-28T11:56:59.851Z,7.17
2023-02-28T11:59:49.137Z,7.90
2023-02-28T12:02:30.796Z,8.10
2023-02-28T12:05:20.078Z,7.70
2023-02-28T12:07:57.470Z,7.90
2023-02-28T12:10:28.302Z,7.90
2023-02-28T12:13:10.541Z,7.77
2023-02-28T12:16:19.783Z,7.50
2023-02-28T12:19:05.778Z,7.30
2023-02-28T12:21:47.482Z,6.97
2023-02-28T12:24:39.995Z,7.30
2023-02-28T12:27:12.162Z,7.10
2023-02-28T12:29:49.141Z,7.80
2023-02-28T12:32:22.791Z,7.30
2023-02-28T12:34:57.298Z,7.70
2023-02-28T12:37:30.248Z,7.45
2023-02-28T12:40:06.630Z,6.97
2023-02-28T12:42:40.818Z,7.63
2023-02-28T12:45:14.545Z,7.10
2023-02-28T12:47:46.854Z,6.90
2023-02-28T12:50:17.672Z,7.18
2023-02-28T12:52:55.389Z,6.97
2023-02-28T12:55:29.679Z,7.35
2023-02-28T12:58:10.579Z,7.63
2023-02-28T13:00:47.150Z,7.28
2023-02-28T13:03:52.897Z,7.57
2023-02-28T13:06:43.918Z,8.10
2023-02-28T13:09:13.644Z,7.57
2023-02-28T13:11:44.943Z,7.57
2023-02-28T13:14:25.742Z,8.32
2023-02-28T13:17:00.634Z,8.30
2023-02-28T13:19:31.493Z,7.90
2023-02-28T13:22:03.087Z,8.50
2023-02-28T13:24:50.523Z,8.55
2023-02-28T13:27:34.975Z,6.78
2023-02-28T13:30:03.771Z,8.13
2023-02-28T13:32:40.168Z,7.93
2023-02-28T13:35:17.132Z,8.02
2023-02-28T13:37:50.913Z,8.25
2023-02-28T13:40:38.199Z,7.97
2023-02-28T13:43:10.619Z,7.47
2023-02-28T13:45:40.796Z,8.10
2023-02-28T13:48:20.138Z,7.72
2023-02-28T13:50:49.068Z,7.82
2023-02-28T13:54:00.285Z,7.93
2023-02-28T13:56:41.825Z,7.35
2023-02-28T13:59:24.808Z,8.52
2023-02-28T14:02:15.957Z,9.10
2023-02-28T14:05:02.798Z,8.75
2023-02-28T14:07:36.563Z,8.75
2023-02-28T14:10:09.653Z,9.00
2023-02-28T14:13:03.234Z,8.45
2023-02-28T14:15:49.225Z,8.60
2023-02-28T14:18:27.036Z,8.30
2023-02-28T14:21:00.265Z,8.20
2023-02-28T14:23:57.930Z,7.47
2023-02-28T14:26:53.588Z,8.43
2023-02-28T14:29:39.529Z,8.63
2023-02-28T14:32:17.098Z,8.93
2023-02-28T14:34:53.133Z,9.03
2023-02-28T14:37:27.119Z,8.60
2023-02-28T14:39:57.306Z,9.10
2023-02-28T14:42:35.024Z,9.13
2023-02-28T14:45:03.879Z,8.70
2023-02-28T14:47:34.759Z,9.10
2023-02-28T14:50:06.236Z,9.53
2023-02-28T14:52:35.266Z,9.57
2023-02-28T14:55:08.179Z,9.50
2023-02-28T14:57:42.919Z,9.50
2023-02-28T15:00:18.385Z,8.97
2023-02-28T15:02:46.636Z,9.47
2023-02-28T15:05:34.275Z,9.67
2023-02-28T15:08:14.909Z,10.80
2023-02-28T15:10:45.727Z,9.70
2023-02-28T15:13:17.149Z,9.77
2023-02-28T15:16:05.239Z,10.30
2023-02-28T15:18:46.896Z,9.23
2023-02-28T15:21:19.220Z,9.93
2023-02-28T15:23:53.674Z,10.23
2023-02-28T15:26:24.681Z,9.40
2023-02-28T15:28:59.581Z,10.00
2023-02-28T15:31:37.053Z,9.87
2023-02-28T15:34:21.920Z,11.50
2023-02-28T15:36:51.346Z,10.40
2023-02-28T15:39:24.371Z,9.80
2023-02-28T15:41:52.974Z,9.47
2023-02-28T15:44:31.259Z,10.73
2023-02-28T15:47:03.300Z,10.83
2023-02-28T15:49:44.916Z,11.80
2023-02-28T15:52:17.903Z,9.73
2023-02-28T15:54:47.064Z,12.10
2023-02-28T15:57:19.738Z,9.20
2023-02-28T15:59:54.059Z,10.10
2023-02-28T16:02:24.235Z,9.53
2023-02-28T16:05:04.294Z,9.90
2023-02-28T16:07:32.608Z,10.57
2023-02-28T16:10:01.315Z,10.67
2023-02-28T16:12:31.922Z,13.17
2023-02-28T16:15:04.055Z,11.27
2023-02-28T16:17:35.910Z,9.93
2023-02-28T16:20:14.678Z,10.30
2023-02-28T16:22:43.852Z,11.23
2023-02-28T16:25:14.254Z,11.43
2023-02-28T16:27:44.017Z,11.57
2023-02-28T16:30:21.053Z,12.23
2023-02-28T16:32:50.189Z,12.53
2023-02-28T16:35:18.990Z,13.60
2023-02-28T16:37:47.723Z,13.57
2023-02-28T16:40:17.529Z,13.10
2023-02-28T16:42:47.741Z,13.97
2023-02-28T16:45:24.032Z,14.17
2023-02-28T16:47:52.538Z,15.03
2023-02-28T16:50:22.609Z,14.43
2023-02-28T16:52:53.210Z,15.13
2023-02-28T16:55:21.538Z,15.87
2023-02-28T16:57:53.985Z,15.60
2023-02-28T17:00:24.823Z,15.23
2023-02-28T17:02:53.201Z,15.70
2023-02-28T17:05:21.822Z,16.20
2023-02-28T17:07:50.720Z,16.67
2023-02-28T17:10:21.602Z,17.60
2023-02-28T17:12:50.175Z,17.60
2023-02-28T17:15:20.676Z,17.73
2023-02-28T17:17:51.185Z,19.40
2023-02-28T17:20:23.652Z,20.90
2023-02-28T17:22:52.405Z,20.77
2023-02-28T17:25:20.806Z,22.13
2023-02-28T17:27:49.607Z,20.47
2023-02-28T17:30:19.751Z,24.07
2023-02-28T17:32:48.212Z,23.03
2023-02-28T17:35:18.178Z,23.50
2023-02-28T17:37:46.472Z,22.50
2023-02-28T17:40:16.700Z,22.57
2023-02-28T17:42:45.252Z,23.40
2023-02-28T17:45:14.258Z,23.47
2023-02-28T17:47:44.130Z,22.77
2023-02-28T17:50:17.028Z,23.30
2023-02-28T17:52:47.329Z,23.00
2023-02-28T17:55:15.983Z,23.60
2023-02-28T17:57:44.227Z,23.33
2023-02-28T18:00:14.821Z,25.20
2023-02-28T18:02:44.051Z,26.03
2023-02-28T18:05:12.773Z,27.70
2023-02-28T18:07:41.755Z,27.60
2023-02-28T18:10:16.231Z,28.63
2023-02-28T18:12:45.037Z,29.83
2023-02-28T18:15:13.210Z,28.80
2023-02-28T18:17:41.497Z,30.80
2023-02-28T18:20:11.914Z,27.90
2023-02-28T18:22:40.496Z,28.23
2023-02-28T18:25:14.703Z,28.17
2023-02-28T18:27:54.155Z,29.40
2023-02-28T18:30:23.250Z,31.03
2023-02-28T18:32:51.703Z,34.47
2023-02-28T18:35:34.888Z,31.90
2023-02-28T18:38:05.636Z,35.03
2023-02-28T18:40:35.252Z,39.33
2023-02-28T18:43:03.660Z,41.03
2023-02-28T18:45:32.319Z,43.33
2023-02-28T18:48:00.516Z,44.17
2023-02-28T18:50:29.653Z,40.33
2023-02-28T18:52:59.277Z,38.07
2023-02-28T18:55:27.980Z,37.60
2023-02-28T18:57:57.561Z,32.33
2023-02-28T19:00:26.048Z,31.57
2023-02-28T19:02:54.212Z,29.97
2023-02-28T19:05:22.659Z,30.03
2023-02-28T19:07:51.637Z,31.63
2023-02-28T19:10:19.979Z,32.17
2023-02-28T19:12:49.294Z,30.43
2023-02-28T19:15:19.031Z,30.67
2023-02-28T19:17:47.363Z,30.10
2023-02-28T19:20:15.554Z,31.97
2023-02-28T19:22:44.316Z,31.40
2023-02-28T19:25:12.760Z,31.03
2023-02-28T19:27:40.959Z,30.70
2023-02-28T19:30:10.926Z,31.93
2023-02-28T19:32:40.505Z,33.03
2023-02-28T19:35:09.438Z,35.50
2023-02-28T19:37:39.967Z,34.40
2023-02-28T19:40:09.990Z,35.33
2023-02-28T19:42:38.586Z,37.93
2023-02-28T19:45:10.202Z,38.53
2023-02-28T19:47:41.736Z,40.80
2023-02-28T19:50:12.341Z,39.20
2023-02-28T19:55:14.088Z,37.13
2023-02-28T19:57:42.132Z,38.93
2023-02-28T20:00:12.359Z,39.27
2023-02-28T20:02:43.940Z,40.03
2023-02-28T20:05:13.449Z,42.47
2023-02-28T20:07:41.480Z,41.03
2023-02-28T20:10:11.004Z,39.77
2023-02-28T20:12:39.150Z,41.57
2023-02-28T20:15:08.570Z,48.90
2023-02-28T20:17:36.767Z,49.77
2023-02-28T20:20:05.561Z,51.03
2023-02-28T20:22:38.264Z,55.70
2023-02-28T20:25:08.112Z,52.10
2023-02-28T20:27:36.391Z,45.57
2023-02-28T20:30:05.798Z,46.57
2023-02-28T20:32:34.006Z,45.40
2023-02-28T20:35:02.119Z,46.87
2023-02-28T20:37:30.316Z,45.20
2023-02-28T20:40:00.079Z,41.80
2023-02-28T20:42:28.185Z,41.30
2023-02-28T20:44:56.219Z,39.87
2023-02-28T20:47:24.271Z,36.63
2023-02-28T20:49:52.369Z,41.00
2023-02-28T20:52:20.480Z,41.03
2023-02-28T20:54:48.559Z,40.07
2023-02-28T20:57:17.946Z,38.00
2023-02-28T20:59:46.102Z,35.83
2023-02-28T21:02:17.688Z,38.33
2023-02-28T21:04:45.952Z,38.07
2023-02-28T21:07:13.961Z,38.40
2023-02-28T21:09:42.313Z,42.23
2023-02-28T21:12:11.509Z,42.60
2023-02-28T21:14:41.567Z,53.37
2023-02-28T21:17:10.523Z,49.53
2023-02-28T21:19:38.648Z,50.57
2023-02-28T21:22:06.772Z,54.70
2023-02-28T21:24:34.853Z,56.20
2023-02-28T21:27:02.930Z,47.37
2023-02-28T21:29:31.051Z,46.30
2023-02-28T21:32:00.631Z,45.37
2023-02-28T21:34:29.576Z,41.60
2023-02-28T21:36:57.622Z,46.57
2023-02-28T21:39:28.885Z,44.93
2023-02-28T21:42:03.895Z,44.03
2023-02-28T21:44:34.436Z,46.13
2023-02-28T21:47:04.180Z,38.93
2023-02-28T21:49:32.559Z,40.73
2023-02-28T21:52:00.808Z,44.20
2023-02-28T21:54:28.869Z,45.43
2023-02-28T21:56:57.485Z,39.33
2023-02-28T21:59:25.851Z,43.57
2023-02-28T22:01:55.232Z,46.43
2023-02-28T22:04:25.047Z,41.40
2023-02-28T22:06:54.879Z,42.47
2023-02-28T22:09:23.360Z,42.07
2023-02-28T22:11:51.791Z,48.93
2023-02-28T22:14:20.439Z,57.27
2023-02-28T22:16:52.589Z,50.63
2023-02-28T22:19:22.044Z,48.43
2023-02-28T22:21:53.826Z,49.50
2023-02-28T22:24:24.602Z,48.23
2023-02-28T22:26:53.702Z,42.90
2023-02-28T22:29:21.860Z,45.47
2023-02-28T22:31:50.068Z,44.63
2023-02-28T22:34:18.290Z,50.10
2023-02-28T22:36:46.381Z,44.03
2023-02-28T22:39:15.916Z,51.10
2023-02-28T22:41:43.982Z,53.57
2023-02-28T22:44:12.242Z,54.13
2023-02-28T22:46:40.362Z,51.97
2023-02-28T22:49:08.524Z,55.93
2023-02-28T22:51:36.598Z,68.03
2023-02-28T22:54:05.013Z,48.93
2023-02-28T22:56:34.661Z,49.87
2023-02-28T22:59:03.430Z,49.20
2023-02-28T23:01:33.641Z,41.27
2023-02-28T23:04:02.826Z,40.23
2023-02-28T23:06:32.716Z,41.77
2023-02-28T23:09:02.626Z,41.37
2023-02-28T23:11:35.718Z,42.87
2023-02-28T23:14:04.711Z,39.43
2023-02-28T23:16:35.761Z,45.93
2023-02-28T23:19:06.090Z,41.57
2023-02-28T23:21:34.665Z,50.30
2023-02-28T23:24:03.890Z,50.50
2023-02-28T23:26:32.726Z,48.60
2023-02-28T23:29:02.340Z,42.33
2023-02-28T23:31:30.491Z,41.17
2023-02-28T23:33:58.937Z,40.67
2023-02-28T23:36:27.002Z,39.57
2023-02-28T23:38:55.174Z,38.87
2023-02-28T23:41:24.738Z,35.83
2023-02-28T23:43:54.580Z,37.37
2023-02-28T23:46:24.086Z,38.70
2023-02-28T23:48:52.090Z,40.20
2023-02-28T23:51:22.421Z,39.50
2023-02-28T23:53:53.440Z,40.80
2023-02-28T23:56:22.914Z,43.03
2023-02-28T23:58:52.055Z,43.53
